createdAt,value
2019-03-12T08:42:10.441Z,57.70
2019-03-12T08:47:33.659Z,56.00
2019-03-12T08:53:06.406Z,54.70
2019-03-12T08:58:46.633Z,54.10
2019-03-12T09:04:00.505Z,52.70
2019-03-12T09:09:44.916Z,53.70
2019-03-12T09:15:21.009Z,51.90
2019-03-12T09:20:53.131Z,51.40
2019-03-12T09:26:22.383Z,50.90
2019-03-12T09:31:45.192Z,51.00
2019-03-12T09:37:15.969Z,49.90
2019-03-12T09:42:46.536Z,49.10
2019-03-12T09:48:09.823Z,48.20
2019-03-12T09:53:39.009Z,47.00
2019-03-12T09:58:55.601Z,48.40
2019-03-12T10:04:06.724Z,46.20
2019-03-12T10:09:32.411Z,46.70
2019-03-12T10:14:55.907Z,43.60
2019-03-12T10:20:29.345Z,46.10
2019-03-12T10:25:52.907Z,44.70
2019-03-12T10:31:17.755Z,42.50
2019-03-12T10:36:33.332Z,40.80
2019-03-12T10:41:47.779Z,42.00
2019-03-12T10:46:59.734Z,40.80
2019-03-12T10:52:05.039Z,39.90
2019-03-12T10:57:10.172Z,39.20
2019-03-12T11:02:14.402Z,38.60
2019-03-12T11:07:19.539Z,39.00
2019-03-12T11:12:24.074Z,38.20
2019-03-12T11:17:29.313Z,37.00
2019-03-12T11:22:34.731Z,38.50
2019-03-12T11:27:40.101Z,38.70
2019-03-12T11:32:45.111Z,38.20
2019-03-12T11:37:51.223Z,37.70
2019-03-12T11:42:57.901Z,37.20
2019-03-12T11:48:02.775Z,37.40
2019-03-12T11:53:08.348Z,38.60
2019-03-12T11:58:16.435Z,35.70
2019-03-12T12:03:21.542Z,38.30
2019-03-12T12:08:26.647Z,36.40
2019-03-12T12:13:31.883Z,37.00
2019-03-12T12:18:37.145Z,36.70
2019-03-12T12:23:42.690Z,36.40
2019-03-12T12:28:48.168Z,36.30
2019-03-12T12:33:53.467Z,35.60
2019-03-12T12:38:58.848Z,34.80
2019-03-12T12:44:03.817Z,34.80
2019-03-12T12:49:08.939Z,34.80
2019-03-12T12:54:14.133Z,35.00
2019-03-12T12:59:19.443Z,34.60
2019-03-12T13:04:24.949Z,34.90
2019-03-12T13:09:30.002Z,32.30
2019-03-12T13:14:41.478Z,33.00
2019-03-12T13:19:42.259Z,34.20
2019-03-12T13:24:47.817Z,35.10
2019-03-12T13:29:53.411Z,34.90
2019-03-12T13:34:58.586Z,34.00
2019-03-12T13:40:04.578Z,34.20
2019-03-12T13:45:10.610Z,34.60
2019-03-12T13:50:16.202Z,34.20
2019-03-12T13:55:21.747Z,33.50
2019-03-12T14:00:27.296Z,32.30
2019-03-12T14:05:32.817Z,32.60
2019-03-12T14:10:37.820Z,32.70
2019-03-12T14:15:43.083Z,31.00
2019-03-12T14:20:54.203Z,29.40
2019-03-12T14:25:58.626Z,29.30
2019-03-12T14:31:04.517Z,30.00
2019-03-12T14:36:08.942Z,30.70
2019-03-12T14:41:12.820Z,25.80
2019-03-12T14:46:16.712Z,25.70
2019-03-12T14:52:05.255Z,25.30
2019-03-12T14:57:10.459Z,24.10
2019-03-12T15:02:16.184Z,23.90
2019-03-12T15:07:22.274Z,24.10
2019-03-12T15:12:27.379Z,25.20
2019-03-12T15:17:32.633Z,25.20
2019-03-12T15:22:37.797Z,25.00
2019-03-12T15:27:43.292Z,25.30
2019-03-12T15:32:48.761Z,25.80
2019-03-12T15:37:55.139Z,27.00
2019-03-12T15:43:00.562Z,25.40
2019-03-12T15:48:05.536Z,25.90
2019-03-12T15:53:11.536Z,26.10
2019-03-12T15:58:16.797Z,26.30
2019-03-12T16:03:21.120Z,28.10
2019-03-12T16:08:25.849Z,27.70
2019-03-12T16:13:29.700Z,27.30
2019-03-12T16:18:36.063Z,28.20
2019-03-12T16:23:41.271Z,27.60
2019-03-12T16:28:46.215Z,27.60
2019-03-12T16:33:52.095Z,27.50
2019-03-12T16:38:59.142Z,27.50
2019-03-12T16:44:04.577Z,27.30
2019-03-12T16:49:09.937Z,27.80
2019-03-12T16:54:15.824Z,28.30
2019-03-12T16:59:21.048Z,27.50
2019-03-12T17:04:26.197Z,28.00
2019-03-12T17:09:31.138Z,28.70
2019-03-12T17:14:39.030Z,28.00
2019-03-12T17:19:43.472Z,27.10
2019-03-12T17:24:48.683Z,27.20
2019-03-12T17:29:54.505Z,27.80
2019-03-12T17:34:59.707Z,27.70
2019-03-12T17:40:06.903Z,27.30
2019-03-12T17:45:12.905Z,27.10
2019-03-12T17:50:18.343Z,26.90
2019-03-12T17:55:23.437Z,27.10
2019-03-12T18:00:29.349Z,27.20
2019-03-12T18:05:35.008Z,26.50
2019-03-12T18:10:40.082Z,25.80
2019-03-12T18:15:45.401Z,26.30
2019-03-12T18:20:50.341Z,25.30
2019-03-12T18:25:53.977Z,25.40
2019-03-12T18:30:59.009Z,24.30
2019-03-12T18:36:04.462Z,24.20
2019-03-12T18:41:11.049Z,24.40
2019-03-12T18:46:15.437Z,25.30
2019-03-12T18:51:20.133Z,25.20
2019-03-12T18:56:24.428Z,25.90
2019-03-12T19:01:28.360Z,26.90
2019-03-12T19:06:32.757Z,26.20
2019-03-12T19:11:37.688Z,27.00
2019-03-12T19:16:42.196Z,26.90
2019-03-12T19:21:46.560Z,27.50
2019-03-12T19:26:52.857Z,26.90
2019-03-12T19:32:22.963Z,27.80
2019-03-12T19:37:29.540Z,27.00
2019-03-12T19:42:35.638Z,27.40
2019-03-12T19:47:40.755Z,27.10
2019-03-12T19:52:46.663Z,26.90
2019-03-12T19:57:52.031Z,26.70
2019-03-12T20:03:09.588Z,27.30
2019-03-12T20:08:04.895Z,26.80
2019-03-12T20:13:36.901Z,27.00
2019-03-12T20:19:21.424Z,27.60
2019-03-12T20:25:05.158Z,27.80
2019-03-12T20:30:51.105Z,27.90
2019-03-12T20:36:46.220Z,28.20
2019-03-12T20:42:42.976Z,28.20
2019-03-12T20:48:17.953Z,28.80
2019-03-12T20:53:58.932Z,28.40
2019-03-12T20:59:40.000Z,28.50
2019-03-12T21:05:29.566Z,28.80
2019-03-12T21:11:23.509Z,28.30
2019-03-12T21:17:13.154Z,28.80
2019-03-12T21:22:58.332Z,28.50
2019-03-12T21:28:50.725Z,28.90
2019-03-12T21:33:58.792Z,28.80
2019-03-12T21:39:06.852Z,30.00
2019-03-12T21:44:14.950Z,30.30
2019-03-12T21:49:20.391Z,32.50
2019-03-12T21:54:25.905Z,34.60
2019-03-12T21:59:31.126Z,35.20
2019-03-12T22:04:36.146Z,35.00
2019-03-12T22:09:41.786Z,35.80
2019-03-12T22:14:47.362Z,36.80
2019-03-12T22:19:53.063Z,36.80
2019-03-12T22:24:58.482Z,37.50
2019-03-12T22:30:04.288Z,38.60
2019-03-12T22:35:10.932Z,38.40
2019-03-12T22:40:16.282Z,39.10
2019-03-12T22:45:21.932Z,40.70
2019-03-12T22:50:27.155Z,41.50
2019-03-12T22:55:32.136Z,41.70
2019-03-12T23:00:42.452Z,41.90
2019-03-12T23:06:06.233Z,42.60
2019-03-12T23:11:28.674Z,43.80
2019-03-12T23:16:34.316Z,45.20
2019-03-12T23:21:39.040Z,47.00
2019-03-12T23:26:43.211Z,46.90
2019-03-12T23:31:47.744Z,47.30
2019-03-12T23:36:53.039Z,49.60
2019-03-12T23:41:58.253Z,50.80
2019-03-12T23:47:04.419Z,51.00
2019-03-12T23:52:09.827Z,53.30
2019-03-12T23:57:15.061Z,58.40
